createdAt,value
2023-03-11T00:00:49.012Z,13.79
2023-03-11T00:03:29.016Z,14.29
2023-03-11T00:05:58.696Z,15.66
2023-03-11T00:08:26.759Z,16.08
2023-03-11T00:10:58.930Z,14.91
2023-03-11T00:13:28.843Z,13.86
2023-03-11T00:15:57.236Z,14.03
2023-03-11T00:18:28.183Z,15.45
2023-03-11T00:20:57.856Z,15.96
2023-03-11T00:23:27.016Z,14.83
2023-03-11T00:25:55.747Z,13.79
2023-03-11T00:28:26.179Z,14.02
2023-03-11T00:30:54.652Z,15.43
2023-03-11T00:33:23.768Z,15.98
2023-03-11T00:35:52.186Z,14.89
2023-03-11T00:38:21.041Z,13.85
2023-03-11T00:40:50.153Z,13.88
2023-03-11T00:43:18.193Z,15.25
2023-03-11T00:45:46.157Z,15.87
2023-03-11T00:48:15.411Z,14.85
2023-03-11T00:50:43.646Z,13.82
2023-03-11T00:53:12.404Z,14.14
2023-03-11T00:55:40.610Z,15.51
2023-03-11T00:58:08.860Z,15.82
2023-03-11T01:00:36.922Z,14.63
2023-03-11T01:03:05.093Z,13.67
2023-03-11T01:05:34.619Z,14.15
2023-03-11T01:08:03.825Z,15.45
2023-03-11T01:10:34.363Z,15.60
2023-03-11T01:13:04.478Z,14.40
2023-03-11T01:15:37.731Z,13.51
2023-03-11T01:18:06.939Z,14.26
2023-03-11T01:20:37.687Z,15.53
2023-03-11T01:23:07.370Z,15.64
2023-03-11T01:25:36.429Z,14.43
2023-03-11T01:28:06.662Z,13.70
2023-03-11T01:30:38.195Z,14.67
2023-03-11T01:33:07.798Z,15.74
2023-03-11T01:35:35.844Z,15.07
2023-03-11T01:38:03.957Z,13.94
2023-03-11T01:40:39.701Z,14.11
2023-03-11T01:43:45.217Z,15.42
2023-03-11T01:46:29.312Z,15.34
2023-03-11T01:49:00.114Z,14.04
2023-03-11T01:51:39.410Z,13.64
2023-03-11T01:54:12.780Z,14.96
2023-03-11T01:56:42.298Z,15.62
2023-03-11T01:59:15.193Z,14.59
2023-03-11T02:02:09.859Z,13.67
2023-03-11T02:04:39.198Z,14.71
2023-03-11T02:07:09.960Z,15.71
2023-03-11T02:09:37.968Z,15.04
2023-03-11T02:12:08.221Z,13.89
2023-03-11T02:14:36.698Z,13.90
2023-03-11T02:17:04.908Z,15.17
2023-03-11T02:19:41.768Z,15.31
2023-03-11T02:22:10.581Z,14.06
2023-03-11T02:24:56.507Z,13.29
2023-03-11T02:27:26.002Z,14.33
2023-03-11T02:29:56.883Z,15.09
2023-03-11T02:32:25.142Z,14.13
2023-03-11T02:34:53.158Z,13.21
2023-03-11T02:37:21.229Z,13.91
2023-03-11T02:39:53.880Z,15.09
2023-03-11T02:42:32.928Z,14.63
2023-03-11T02:45:11.625Z,13.42
2023-03-11T02:47:40.319Z,13.11
2023-03-11T02:50:11.685Z,14.33
2023-03-11T02:52:39.931Z,14.21
2023-03-11T02:55:11.948Z,13.10
2023-03-11T02:57:39.975Z,12.82
2023-03-11T03:00:16.822Z,14.05
2023-03-11T03:02:45.845Z,14.40
2023-03-11T03:05:14.368Z,13.28
2023-03-11T03:07:42.452Z,12.55
2023-03-11T03:10:11.865Z,13.56
2023-03-11T03:12:39.902Z,14.26
2023-03-11T03:15:08.886Z,13.25
2023-03-11T03:17:37.913Z,12.32
2023-03-11T03:20:11.525Z,13.00
2023-03-11T03:22:41.076Z,14.00
2023-03-11T03:25:10.708Z,13.21
2023-03-11T03:27:39.019Z,12.14
2023-03-11T03:30:09.247Z,11.89
2023-03-11T03:32:37.715Z,13.17
2023-03-11T03:35:06.877Z,13.38
2023-03-11T03:37:36.630Z,12.29
2023-03-11T03:40:10.117Z,11.59
2023-03-11T03:42:38.558Z,12.58
2023-03-11T03:45:08.850Z,13.47
2023-03-11T03:47:37.387Z,12.60
2023-03-11T03:50:09.096Z,11.69
2023-03-11T03:52:38.392Z,12.41
2023-03-11T03:55:07.429Z,13.35
2023-03-11T03:57:35.589Z,12.48
2023-03-11T04:00:05.022Z,11.71
2023-03-11T04:02:33.190Z,12.68
2023-03-11T04:05:01.465Z,13.38
2023-03-11T04:07:29.499Z,12.39
2023-03-11T04:09:57.461Z,11.81
2023-03-11T04:12:25.617Z,12.87
2023-03-11T04:14:53.838Z,13.56
2023-03-11T04:17:21.844Z,12.52
2023-03-11T04:19:49.999Z,11.50
2023-03-11T04:22:18.018Z,10.70
2023-03-11T04:24:46.186Z,10.50
2023-03-11T04:27:14.244Z,11.81
2023-03-11T04:29:42.184Z,12.46
2023-03-11T04:32:10.249Z,11.43
2023-03-11T04:34:38.237Z,10.48
2023-03-11T04:37:06.325Z,9.79
2023-03-11T04:39:34.335Z,10.22
2023-03-11T04:42:04.005Z,11.60
2023-03-11T04:44:32.068Z,12.05
2023-03-11T04:47:00.026Z,10.84
2023-03-11T04:49:27.914Z,9.79
2023-03-11T04:51:56.856Z,9.56
2023-03-11T04:54:24.927Z,10.79
2023-03-11T04:56:52.869Z,11.46
2023-03-11T04:59:20.766Z,10.50
2023-03-11T05:01:48.887Z,9.42
2023-03-11T05:04:16.993Z,8.94
2023-03-11T05:06:45.020Z,9.83
2023-03-11T05:09:12.940Z,10.20
2023-03-11T05:11:41.013Z,9.32
2023-03-11T05:14:09.115Z,8.38
2023-03-11T05:16:37.289Z,8.78
2023-03-11T05:19:25.456Z,9.68
2023-03-11T05:21:53.996Z,8.92
2023-03-11T05:24:22.094Z,7.95
2023-03-11T05:26:50.202Z,8.20
2023-03-11T05:29:18.488Z,9.59
2023-03-11T05:31:47.150Z,9.65
2023-03-11T05:34:16.581Z,8.33
2023-03-11T05:36:44.864Z,7.64
2023-03-11T05:39:12.984Z,8.50
2023-03-11T05:41:41.652Z,9.52
2023-03-11T05:44:09.710Z,9.05
2023-03-11T05:46:38.044Z,7.89
2023-03-11T05:49:06.127Z,7.59
2023-03-11T05:51:34.393Z,8.82
2023-03-11T05:54:02.545Z,9.39
2023-03-11T05:56:30.569Z,8.44
2023-03-11T05:58:58.753Z,7.48
2023-03-11T06:01:26.933Z,8.34
2023-03-11T06:03:55.162Z,9.04
2023-03-11T06:06:24.050Z,8.38
2023-03-11T06:08:52.470Z,7.46
2023-03-11T06:11:21.573Z,7.85
2023-03-11T06:13:54.809Z,9.13
2023-03-11T06:16:24.778Z,9.43
2023-03-11T06:18:52.981Z,8.13
2023-03-11T06:21:23.935Z,7.26
2023-03-11T06:23:52.116Z,8.04
2023-03-11T06:26:22.168Z,9.29
2023-03-11T06:28:52.112Z,8.96
2023-03-11T06:31:28.576Z,7.69
2023-03-11T06:33:56.896Z,7.21
2023-03-11T06:36:25.655Z,8.53
2023-03-11T06:38:54.822Z,9.12
2023-03-11T06:41:23.003Z,8.06
2023-03-11T06:43:51.229Z,7.22
2023-03-11T06:46:43.752Z,7.94
2023-03-11T06:49:18.877Z,8.82
2023-03-11T06:52:04.281Z,7.98
2023-03-11T06:54:32.367Z,6.92
2023-03-11T06:57:03.028Z,7.46
2023-03-11T06:59:31.090Z,8.59
2023-03-11T07:02:04.567Z,8.73
2023-03-11T07:04:33.600Z,7.50
2023-03-11T07:07:01.602Z,6.99
2023-03-11T07:09:29.990Z,7.80
2023-03-11T07:11:58.434Z,8.57
2023-03-11T07:14:26.774Z,8.52
2023-03-11T07:16:55.131Z,7.28
2023-03-11T07:19:23.195Z,6.85
2023-03-11T07:21:51.552Z,8.03
2023-03-11T07:24:20.317Z,8.48
2023-03-11T07:26:48.458Z,7.48
2023-03-11T07:29:16.557Z,7.03
2023-03-11T07:31:44.938Z,8.16
2023-03-11T07:34:13.311Z,8.60
2023-03-11T07:36:42.412Z,7.69
2023-03-11T07:39:17.730Z,7.38
2023-03-11T07:41:46.819Z,8.58
2023-03-11T07:44:16.891Z,9.39
2023-03-11T07:46:45.683Z,8.55
2023-03-11T07:49:14.042Z,7.57
2023-03-11T07:51:43.800Z,7.32
2023-03-11T07:54:12.877Z,8.76
2023-03-11T07:56:41.098Z,9.44
2023-03-11T07:59:09.199Z,8.43
2023-03-11T08:01:40.660Z,7.45
2023-03-11T08:04:14.230Z,7.21
2023-03-11T08:06:46.064Z,8.53
2023-03-11T08:09:14.529Z,9.18
2023-03-11T08:11:43.061Z,8.18
2023-03-11T08:14:11.282Z,7.29
2023-03-11T08:16:41.261Z,7.66
2023-03-11T08:19:13.705Z,9.03
2023-03-11T08:21:41.851Z,8.92
2023-03-11T08:24:12.876Z,7.78
2023-03-11T08:26:41.766Z,7.16
2023-03-11T08:29:09.865Z,8.11
2023-03-11T08:31:38.324Z,9.03
2023-03-11T08:34:10.148Z,8.33
2023-03-11T08:36:38.173Z,7.37
2023-03-11T08:39:09.244Z,7.29
2023-03-11T08:41:39.645Z,8.60
2023-03-11T08:44:09.298Z,9.10
2023-03-11T08:46:39.933Z,7.94
2023-03-11T08:49:08.267Z,7.04
2023-03-11T08:51:37.188Z,7.44
2023-03-11T08:54:06.132Z,8.86
2023-03-11T08:56:34.098Z,8.32
2023-03-11T08:59:03.274Z,7.32
2023-03-11T09:01:35.673Z,7.19
2023-03-11T09:04:08.550Z,8.59
2023-03-11T09:06:37.539Z,9.12
2023-03-11T09:09:06.247Z,8.06
2023-03-11T09:11:37.460Z,7.13
2023-03-11T09:14:08.651Z,7.32
2023-03-11T09:16:36.843Z,8.86
2023-03-11T09:19:07.582Z,8.74
2023-03-11T09:21:36.436Z,7.70
2023-03-11T09:24:05.777Z,7.18
2023-03-11T09:26:44.494Z,8.45
2023-03-11T09:29:13.272Z,9.22
2023-03-11T09:31:41.846Z,8.22
2023-03-11T09:34:15.053Z,7.32
2023-03-11T09:36:48.291Z,7.31
2023-03-11T09:39:17.259Z,8.82
2023-03-11T09:41:59.474Z,9.44
2023-03-11T09:44:48.341Z,8.49
2023-03-11T09:47:49.466Z,7.51
2023-03-11T09:50:52.519Z,8.51
2023-03-11T09:53:43.206Z,9.44
2023-03-11T09:56:21.086Z,8.31
2023-03-11T09:58:57.114Z,7.40
2023-03-11T10:01:36.410Z,7.84
2023-03-11T10:04:32.528Z,9.16
2023-03-11T10:07:03.457Z,8.79
2023-03-11T10:09:57.271Z,7.81
2023-03-11T10:13:23.650Z,7.94
2023-03-11T10:16:08.332Z,9.98
2023-03-11T10:19:03.357Z,9.57
2023-03-11T10:22:08.825Z,8.28
2023-03-11T10:25:12.256Z,7.98
2023-03-11T10:28:04.957Z,9.49
2023-03-11T10:30:40.326Z,9.28
2023-03-11T10:33:32.688Z,8.22
2023-03-11T10:36:08.577Z,7.37
2023-03-11T10:38:49.993Z,7.85
2023-03-11T10:41:43.215Z,9.49
2023-03-11T10:44:15.945Z,8.97
2023-03-11T10:46:47.577Z,7.96
2023-03-11T10:49:19.473Z,7.22
2023-03-11T10:51:51.689Z,7.70
2023-03-11T10:54:35.116Z,9.15
2023-03-11T10:57:22.570Z,9.08
2023-03-11T10:59:54.361Z,7.95
2023-03-11T11:02:29.032Z,7.19
2023-03-11T11:05:24.524Z,7.13
2023-03-11T11:08:07.441Z,8.89
2023-03-11T11:10:36.805Z,8.74
2023-03-11T11:13:14.075Z,7.76
2023-03-11T11:16:03.327Z,6.96
2023-03-11T11:18:42.783Z,7.01
2023-03-11T11:21:37.336Z,8.74
2023-03-11T11:24:23.276Z,9.02
2023-03-11T11:27:19.550Z,7.85
2023-03-11T11:30:04.461Z,7.04
2023-03-11T11:32:32.456Z,8.05
2023-03-11T11:35:16.086Z,9.30
2023-03-11T11:37:57.820Z,8.57
2023-03-11T11:40:34.193Z,7.55
2023-03-11T11:43:07.094Z,6.88
2023-03-11T11:45:40.786Z,7.36
2023-03-11T11:48:16.712Z,8.92
2023-03-11T11:51:24.996Z,8.38
2023-03-11T11:54:26.479Z,7.24
2023-03-11T11:56:57.216Z,6.69
2023-03-11T11:59:25.923Z,7.94
2023-03-11T12:02:06.472Z,8.96
2023-03-11T12:05:01.549Z,8.06
2023-03-11T12:08:12.711Z,7.06
2023-03-11T12:10:55.164Z,6.33
2023-03-11T12:14:02.313Z,6.70
2023-03-11T12:17:04.961Z,8.09
2023-03-11T12:20:05.419Z,7.18
2023-03-11T12:22:58.637Z,6.35
2023-03-11T12:25:35.123Z,5.92
2023-03-11T12:28:24.061Z,7.05
2023-03-11T12:31:00.961Z,8.10
2023-03-11T12:33:48.464Z,7.34
2023-03-11T12:36:44.093Z,6.48
2023-03-11T12:39:26.498Z,5.94
2023-03-11T12:42:13.558Z,5.76
2023-03-11T12:44:42.549Z,7.29
2023-03-11T12:47:10.900Z,7.72
2023-03-11T12:49:45.059Z,7.06
2023-03-11T12:52:15.986Z,6.54
2023-03-11T12:54:57.239Z,6.13
2023-03-11T12:57:50.809Z,5.82
2023-03-11T13:01:03.831Z,5.53
2023-03-11T13:03:43.411Z,5.26
2023-03-11T13:06:43.356Z,5.14
2023-03-11T13:09:16.960Z,5.70
2023-03-11T13:11:47.591Z,7.08
2023-03-11T13:14:18.524Z,6.77
2023-03-11T13:16:48.321Z,6.29
2023-03-11T13:19:34.323Z,6.04
2023-03-11T13:22:05.839Z,5.91
2023-03-11T13:24:34.329Z,5.79
2023-03-11T13:27:21.456Z,5.65
2023-03-11T13:30:20.224Z,5.49
2023-03-11T13:32:55.067Z,5.30
2023-03-11T13:35:32.942Z,5.14
2023-03-11T13:38:39.169Z,5.00
2023-03-11T13:41:22.886Z,4.85
2023-03-11T13:43:52.139Z,4.71
2023-03-11T13:46:41.246Z,4.61
2023-03-11T13:49:36.359Z,4.55
2023-03-11T13:52:09.675Z,4.54
2023-03-11T13:54:59.010Z,4.51
2023-03-11T13:57:34.539Z,4.47
2023-03-11T14:00:17.951Z,4.40
2023-03-11T14:02:51.349Z,4.36
2023-03-11T14:05:37.151Z,4.30
2023-03-11T14:08:33.900Z,4.25
2023-03-11T14:11:17.122Z,4.18
2023-03-11T14:13:50.360Z,4.16
2023-03-11T14:16:44.225Z,4.12
2023-03-11T14:19:20.375Z,4.11
2023-03-11T14:21:52.137Z,4.10
2023-03-11T14:24:27.583Z,4.08
2023-03-11T14:27:00.391Z,4.04
2023-03-11T14:29:40.519Z,4.00
2023-03-11T14:32:27.868Z,3.95
2023-03-11T14:34:57.451Z,3.92
2023-03-11T14:37:39.138Z,3.91
2023-03-11T14:40:30.863Z,3.90
2023-03-11T14:43:03.289Z,3.87
2023-03-11T14:45:37.550Z,3.86
2023-03-11T14:48:44.814Z,3.87
2023-03-11T14:51:19.813Z,3.86
2023-03-11T14:54:06.189Z,3.85
2023-03-11T14:56:40.370Z,3.82
2023-03-11T14:59:26.945Z,3.78
2023-03-11T15:02:00.532Z,4.16
2023-03-11T15:04:39.453Z,6.08
2023-03-11T15:07:08.083Z,6.55
2023-03-11T15:09:40.890Z,5.86
2023-03-11T15:12:33.485Z,5.33
2023-03-11T15:15:02.300Z,4.98
2023-03-11T15:17:39.532Z,5.06
2023-03-11T15:20:48.036Z,6.61
2023-03-11T15:23:22.981Z,6.31
2023-03-11T15:25:51.457Z,5.71
2023-03-11T15:28:32.224Z,5.32
2023-03-11T15:31:22.014Z,5.03
2023-03-11T15:33:51.906Z,5.26
2023-03-11T15:36:43.950Z,7.05
2023-03-11T15:39:20.758Z,7.65
2023-03-11T15:42:03.925Z,6.72
2023-03-11T15:44:36.473Z,6.00
2023-03-11T15:47:07.692Z,5.55
2023-03-11T15:49:35.707Z,5.27
2023-03-11T15:52:06.764Z,6.02
2023-03-11T15:54:35.141Z,7.35
2023-03-11T15:57:07.391Z,6.86
2023-03-11T15:59:36.958Z,6.15
2023-03-11T16:02:21.089Z,5.64
2023-03-11T16:04:49.819Z,5.27
2023-03-11T16:07:21.806Z,5.02
2023-03-11T16:09:57.347Z,4.78
2023-03-11T16:12:25.379Z,4.60
2023-03-11T16:14:53.943Z,4.42
2023-03-11T16:17:23.658Z,4.26
2023-03-11T16:19:52.049Z,4.11
2023-03-11T16:22:26.370Z,4.35
2023-03-11T16:24:54.835Z,6.12
2023-03-11T16:27:23.704Z,7.04
2023-03-11T16:29:52.070Z,6.28
2023-03-11T16:32:20.446Z,5.58
2023-03-11T16:34:48.583Z,5.10
2023-03-11T16:37:20.858Z,4.75
2023-03-11T16:39:49.423Z,4.50
2023-03-11T16:42:23.744Z,4.29
2023-03-11T16:44:52.045Z,4.87
2023-03-11T16:47:20.144Z,6.63
2023-03-11T16:49:50.491Z,6.69
2023-03-11T16:52:21.128Z,5.87
2023-03-11T16:54:50.304Z,5.26
2023-03-11T16:57:18.338Z,4.84
2023-03-11T16:59:46.522Z,4.53
2023-03-11T17:02:14.892Z,4.61
2023-03-11T17:04:43.180Z,6.25
2023-03-11T17:07:11.343Z,6.94
2023-03-11T17:09:39.775Z,6.15
2023-03-11T17:12:08.635Z,5.43
2023-03-11T17:14:37.189Z,4.95
2023-03-11T17:17:06.149Z,4.60
2023-03-11T17:19:34.370Z,4.41
2023-03-11T17:22:02.794Z,5.65
2023-03-11T17:24:30.931Z,6.91
2023-03-11T17:26:58.999Z,6.29
2023-03-11T17:29:27.175Z,5.51
2023-03-11T17:32:16.835Z,4.96
2023-03-11T17:34:45.916Z,4.55
2023-03-11T17:37:14.715Z,4.25
2023-03-11T17:39:42.892Z,4.50
2023-03-11T17:42:11.242Z,6.12
2023-03-11T17:44:51.125Z,6.07
2023-03-11T17:47:20.602Z,5.27
2023-03-11T17:49:50.029Z,4.74
2023-03-11T17:52:18.440Z,4.37
2023-03-11T17:54:46.756Z,5.23
2023-03-11T17:57:15.570Z,6.60
2023-03-11T17:59:44.116Z,6.09
2023-03-11T18:02:14.516Z,5.33
2023-03-11T18:04:46.050Z,4.78
2023-03-11T18:07:15.059Z,4.42
2023-03-11T18:09:43.571Z,5.36
2023-03-11T18:12:12.200Z,6.76
2023-03-11T18:14:42.916Z,6.19
2023-03-11T18:17:11.727Z,5.37
2023-03-11T18:19:45.833Z,4.80
2023-03-11T18:22:15.727Z,4.61
2023-03-11T18:24:47.245Z,6.06
2023-03-11T18:27:18.884Z,6.66
2023-03-11T18:29:52.144Z,5.81
2023-03-11T18:32:28.226Z,5.06
2023-03-11T18:34:58.216Z,4.65
2023-03-11T18:37:27.045Z,5.78
2023-03-11T18:39:56.212Z,7.02
2023-03-11T18:42:24.709Z,6.33
2023-03-11T18:44:55.587Z,5.47
2023-03-11T18:47:26.468Z,4.87
2023-03-11T18:49:55.096Z,5.19
2023-03-11T18:52:23.330Z,6.90
2023-03-11T18:54:51.548Z,7.31
2023-03-11T18:57:19.965Z,6.33
2023-03-11T18:59:50.462Z,5.50
2023-03-11T19:02:18.995Z,4.96
2023-03-11T19:04:47.539Z,5.72
2023-03-11T19:07:16.133Z,7.22
2023-03-11T19:09:44.320Z,6.78
2023-03-11T19:12:12.775Z,5.84
2023-03-11T19:14:41.361Z,5.15
2023-03-11T19:17:09.857Z,5.35
2023-03-11T19:19:39.858Z,6.96
2023-03-11T19:22:08.754Z,7.02
2023-03-11T19:24:36.900Z,6.03
2023-03-11T19:27:04.872Z,5.35
2023-03-11T19:29:33.425Z,6.19
2023-03-11T19:32:03.483Z,7.29
2023-03-11T19:34:35.474Z,6.52
2023-03-11T19:37:03.691Z,5.63
2023-03-11T19:39:32.463Z,5.00
2023-03-11T19:42:03.185Z,4.96
2023-03-11T19:44:33.389Z,6.54
2023-03-11T19:47:02.123Z,7.03
2023-03-11T19:49:31.538Z,6.08
2023-03-11T19:52:00.306Z,5.29
2023-03-11T19:54:28.828Z,4.72
2023-03-11T19:56:57.119Z,4.48
2023-03-11T19:59:25.807Z,5.85
2023-03-11T20:01:55.011Z,6.72
2023-03-11T20:04:25.346Z,5.87
2023-03-11T20:06:54.114Z,5.08
2023-03-11T20:09:22.939Z,4.51
2023-03-11T20:11:51.876Z,4.31
2023-03-11T20:14:20.562Z,5.65
2023-03-11T20:16:49.083Z,6.69
2023-03-11T20:19:20.842Z,5.89
2023-03-11T20:21:50.816Z,5.03
2023-03-11T20:24:20.138Z,4.45
2023-03-11T20:26:50.756Z,4.36
2023-03-11T20:29:20.594Z,5.90
2023-03-11T20:31:50.048Z,6.64
2023-03-11T20:34:18.411Z,5.73
2023-03-11T20:36:46.733Z,4.92
2023-03-11T20:39:16.265Z,4.36
2023-03-11T20:41:44.693Z,4.74
2023-03-11T20:44:14.632Z,6.38
2023-03-11T20:46:43.786Z,6.31
2023-03-11T20:49:12.699Z,5.36
2023-03-11T20:51:42.060Z,4.65
2023-03-11T20:54:12.293Z,4.13
2023-03-11T20:56:41.645Z,4.50
2023-03-11T20:59:13.831Z,6.21
2023-03-11T21:01:43.378Z,6.56
2023-03-11T21:04:15.129Z,5.57
2023-03-11T21:06:44.925Z,4.76
2023-03-11T21:09:15.625Z,4.24
2023-03-11T21:11:44.139Z,4.16
2023-03-11T21:14:19.052Z,5.68
2023-03-11T21:16:47.616Z,6.51
2023-03-11T21:19:16.303Z,5.62
2023-03-11T21:21:44.638Z,4.80
2023-03-11T21:24:13.263Z,4.20
2023-03-11T21:26:42.221Z,3.94
2023-03-11T21:29:11.361Z,5.23
2023-03-11T21:31:40.273Z,6.37
2023-03-11T21:34:12.343Z,5.66
2023-03-11T21:36:41.075Z,4.78
2023-03-11T21:39:09.831Z,4.16
2023-03-11T21:41:41.935Z,4.06
2023-03-11T21:44:12.995Z,5.62
2023-03-11T21:46:45.186Z,6.30
2023-03-11T21:49:14.553Z,5.36
2023-03-11T21:51:43.606Z,4.54
2023-03-11T21:54:13.452Z,3.94
2023-03-11T21:56:42.929Z,3.96
2023-03-11T21:59:17.728Z,5.58
2023-03-11T22:02:05.413Z,6.49
2023-03-11T22:04:36.063Z,5.47
2023-03-11T22:07:04.360Z,4.60
2023-03-11T22:09:32.660Z,4.01
2023-03-11T22:12:12.990Z,3.95
2023-03-11T22:14:41.419Z,5.58
2023-03-11T22:17:09.778Z,5.93
2023-03-11T22:19:38.132Z,5.01
2023-03-11T22:22:06.877Z,4.28
2023-03-11T22:24:35.047Z,3.78
2023-03-11T22:27:03.235Z,3.89
2023-03-11T22:29:31.910Z,5.54
2023-03-11T22:32:00.075Z,6.34
2023-03-11T22:34:28.470Z,5.40
2023-03-11T22:36:56.421Z,4.56
2023-03-11T22:39:24.867Z,4.00
2023-03-11T22:41:53.015Z,4.58
2023-03-11T22:44:21.214Z,6.23
2023-03-11T22:46:49.393Z,6.21
2023-03-11T22:49:17.951Z,5.20
2023-03-11T22:51:46.560Z,4.44
2023-03-11T22:54:14.663Z,4.07
2023-03-11T22:56:43.065Z,5.34
2023-03-11T22:59:11.164Z,6.39
2023-03-11T23:01:39.209Z,5.56
2023-03-11T23:04:07.352Z,4.69
2023-03-11T23:06:35.508Z,4.05
2023-03-11T23:09:05.424Z,4.06
2023-03-11T23:11:33.666Z,5.66
2023-03-11T23:14:01.728Z,6.19
2023-03-11T23:16:29.972Z,5.22
2023-03-11T23:18:58.578Z,4.39
2023-03-11T23:21:32.480Z,3.90
2023-03-11T23:24:02.254Z,5.01
2023-03-11T23:26:31.113Z,6.39
2023-03-11T23:29:01.056Z,5.80
2023-03-11T23:31:30.158Z,4.81
2023-03-11T23:33:58.885Z,4.22
2023-03-11T23:36:30.300Z,5.19
2023-03-11T23:38:58.633Z,6.43
2023-03-11T23:41:26.881Z,5.73
2023-03-11T23:43:54.870Z,4.77
2023-03-11T23:46:22.882Z,4.16
2023-03-11T23:48:51.052Z,5.02
2023-03-11T23:51:19.141Z,6.48
2023-03-11T23:53:47.448Z,6.14
2023-03-11T23:56:17.993Z,5.13
2023-03-11T23:58:46.978Z,4.34
